Campiña-No se requiere un especial cuidado respecto a la situación meteorológica.   -   No hay avisos

Informes METAR

 

LEZL - Sevilla, Spain
Distancia de la estación: ENE 8km
Actualización: 24/10/2020 17:30
Poco nuboso
Poco nuboso
 Viento de OSO
Viento: OSO 7 km/h
Temperatura: 21°C
Rocío: 12°C
Humedad: 57%
Barómetro: 1025 hPa
Nubes: Poco nuboso
Visibilidad: 10 km
Detalles de las nubes: Poco nuboso 914 m
2020/10/24 15:30 LEZL 241530Z 25004KT 170V340 9999 FEW030 21/12 Q1025 NOSIG
LEMO - Morón, Spain
Distancia de la estación: SE 43km
Actualización: 24/10/2020 17:30
Parcialmente nuboso
Parcialmente nuboso
 Viento de O
Viento: O 11 km/h
Temperatura: 21°C
Rocío: 12°C
Humedad: 57%
Barómetro: 1025 hPa
Nubes: Parcialmente nuboso
Visibilidad: 10 km
Detalles de las nubes: Parcialmente nuboso 1158 m
2020/10/24 15:30 LEMO 241530Z 26006KT 230V290 9999 SCT038 21/12 Q1025 NOSIG
LEJR - Jeréz, Spain
Distancia de la estación: S 71km
Actualización: 24/10/2020 17:30
Poco nuboso
Poco nuboso
 Viento de OSO
Viento: OSO 15 km/h
Temperatura: 22°C
Rocío: 11°C
Humedad: 50%
Barómetro: 1025 hPa
Nubes: Poco nuboso
Visibilidad: 10 km
Detalles de las nubes: Poco nuboso 1128 m
2020/10/24 15:30 LEJR 241530Z 25008KT 9999 FEW037 22/11 Q1025
 
LERT - Rota, Spain
Distancia de la estación: SSO 89km
Actualización: 24/10/2020 17:30
Poco nuboso
Poco nuboso
 Viento de OSO
Viento: OSO 15 km/h
Temperatura: 20°C
Rocío: 16°C
Humedad: 78%
Barómetro: 1025 hPa
Nubes: Poco nuboso
Visibilidad: 10 km
Detalles de las nubes: Poco nuboso 549 m
2020/10/24 15:30 LERT 241530Z 25008KT 210V280 9999 FEW018 20/16 Q1025 NOSIG
LEMG - Málaga, Spain
Distancia de la estación: ESE 157km
Actualización: 24/10/2020 17:30
Poco nuboso
Poco nuboso
 Viento de S
Viento: S 17 km/h
Temperatura: 23°C
Rocío: 10°C
Humedad: 44%
Barómetro: 1023 hPa
Nubes: Poco nuboso
Visibilidad: 10 km
Detalles de las nubes: Poco nuboso 975 m
2020/10/24 15:30 LEMG 241530Z 18009KT 140V220 9999 FEW032 23/10 Q1023 NOSIG
LEBA - Córdoba, Spain
Distancia de la estación: ENE 115km
Actualización: 24/10/2020 17:30
Poco nuboso
Poco nuboso
 Viento de SO
Viento: SO 13 km/h
Temperatura: 20°C
Rocío: 12°C
Humedad: 60%
Barómetro: 1025 hPa
Nubes: Poco nuboso
Visibilidad: 10 km
Detalles de las nubes: Poco nuboso 1219 m
2020/10/24 15:30 LEBA 241530Z 23007KT 200V260 9999 FEW040 20/12 Q1025
 
LEGR - Granada, Spain
Distancia de la estación: E 198km
Actualización: 24/10/2020 17:30
Poco nuboso
Poco nuboso
 Viento de O
Viento: O 11 km/h
Temperatura: 21°C
Rocío: 5°C
Humedad: 35%
Barómetro: 1025 hPa
Nubes: Poco nuboso
Visibilidad: 10 km
Detalles de las nubes: Poco nuboso 1219 m
2020/10/24 15:30 LEGR 241530Z 27006KT 230V300 9999 FEW040 21/05 Q1025
LEAM - Almería, Spain
Distancia de la estación: E 326km
Actualización: 24/10/2020 17:30
Despejado
Despejado
 Viento de SO
Viento: SO 19 km/h
Temperatura: 20°C
Rocío: 15°C
Humedad: 73%
Barómetro: 1023 hPa
Resumen: Despejado
Visibilidad: mayor de 10 km
2020/10/24 15:30 LEAM 241530Z 22010KT 200V260 CAVOK 20/15 Q1023
LEMD - Madrid/Barajas, Spain
Distancia de la estación: NNE 402km
Actualización: 24/10/2020 17:30
Poco nuboso
Poco nuboso
 Viento de SO
Viento: SO 17 km/h
Temperatura: 16°C
Rocío: 8°C
Humedad: 59%
Barómetro: 1023 hPa
Nubes: Poco nuboso
Visibilidad: 10 km
Detalles de las nubes: Poco nuboso 1067 m
2020/10/24 15:30 LEMD 241530Z 23009KT 9999 FEW035 16/08 Q1023 NOSIG
 
LEVD - Valladolid, Spain
Distancia de la estación: N 492km
Actualización: 24/10/2020 17:30
Cubierto
Cubierto
 Viento de OSO
Viento: OSO 24 km/h
Temperatura: 12°C
Rocío: 7°C
Humedad: 72%
Barómetro: 1023 hPa
Nubes: Cubierto
Visibilidad: 10 km
Detalles de las nubes: Muy nuboso 671 m
Cubierto 853 m
2020/10/24 15:30 LEVD 241530Z 25013KT 220V280 9999 BKN022 OVC028 12/07 Q1023
LEBL - Barcelona, Spain
Distancia de la estación: NE 816km
Actualización: 24/10/2020 17:30
Despejado
Despejado
 Viento de SO
Viento: SO 30 km/h
Temperatura: 20°C
Rocío: 12°C
Humedad: 60%
Barómetro: 1019 hPa
Resumen: Despejado
Visibilidad: mayor de 10 km
2020/10/24 15:30 LEBL 241530Z 23016KT CAVOK 20/12 Q1019 NOSIG
LEVC - Valencia, Spain
Distancia de la estación: ENE 535km
Actualización: 24/10/2020 17:30
Despejado
Despejado
 Viento de O
Viento: O 26 km/h
Temperatura: 25°C
Rocío: 8°C
Humedad: 34%
Barómetro: 1020 hPa
Resumen: Despejado
Visibilidad: mayor de 10 km
2020/10/24 15:30 LEVC 241530Z 26014KT CAVOK 25/08 Q1020 NOSIG